createdAt,value
2017-12-13T00:01:08.667Z,31.23
2017-12-13T00:03:35.795Z,32.70
2017-12-13T00:06:02.944Z,31.70
2017-12-13T00:08:30.093Z,28.67
2017-12-13T00:10:56.964Z,33.95
2017-12-13T00:13:24.080Z,29.85
2017-12-13T00:15:50.952Z,32.08
2017-12-13T00:18:18.036Z,30.98
2017-12-13T00:20:44.867Z,32.65
2017-12-13T00:23:11.715Z,27.52
2017-12-13T00:25:38.814Z,29.58
2017-12-13T00:28:05.691Z,27.80
2017-12-13T00:30:32.565Z,31.50
2017-12-13T00:32:59.407Z,27.93
2017-12-13T00:35:26.270Z,30.77
2017-12-13T00:37:53.355Z,24.98
2017-12-13T00:40:20.213Z,27.23
2017-12-13T00:42:47.055Z,28.40
2017-12-13T00:45:14.177Z,24.83
2017-12-13T00:47:41.036Z,25.30
2017-12-13T00:50:07.867Z,27.48
2017-12-13T00:52:35.008Z,30.80
2017-12-13T00:55:01.836Z,27.30
2017-12-13T00:57:28.995Z,26.15
2017-12-13T00:59:56.150Z,26.73
2017-12-13T01:02:23.001Z,24.30
2017-12-13T01:04:49.837Z,25.08
2017-12-13T01:07:16.988Z,27.35
2017-12-13T01:09:43.863Z,24.10
2017-12-13T01:12:10.980Z,24.93
2017-12-13T01:14:37.883Z,27.08
2017-12-13T01:17:04.698Z,28.73
2017-12-13T01:19:31.582Z,26.10
2017-12-13T01:21:58.764Z,26.60
2017-12-13T01:24:25.610Z,31.62
2017-12-13T01:26:52.463Z,32.50
2017-12-13T01:29:19.347Z,25.15
2017-12-13T01:31:46.167Z,26.20
2017-12-13T01:34:13.015Z,27.45
2017-12-13T01:36:39.867Z,29.98
2017-12-13T01:39:06.683Z,28.60
2017-12-13T01:41:33.515Z,29.08
2017-12-13T01:44:00.661Z,31.37
2017-12-13T01:46:27.487Z,30.75
2017-12-13T01:48:54.368Z,33.17
2017-12-13T01:51:21.231Z,33.13
2017-12-13T01:53:48.083Z,31.70
2017-12-13T01:56:14.987Z,33.55
2017-12-13T01:58:41.848Z,32.90
2017-12-13T02:01:08.699Z,30.83
2017-12-13T02:03:35.816Z,32.13
2017-12-13T02:06:02.757Z,28.67
2017-12-13T02:08:29.912Z,30.33
2017-12-13T02:10:56.812Z,30.50
2017-12-13T02:13:23.708Z,28.23
2017-12-13T02:15:50.565Z,28.55
2017-12-13T02:18:17.691Z,29.12
2017-12-13T02:20:44.601Z,28.08
2017-12-13T02:23:11.487Z,30.27
2017-12-13T02:25:38.737Z,28.62
2017-12-13T02:28:05.595Z,33.97
2017-12-13T02:30:32.452Z,39.72
2017-12-13T02:32:59.567Z,27.33
2017-12-13T02:35:26.471Z,25.10
2017-12-13T02:37:53.295Z,26.65
2017-12-13T02:40:38.228Z,26.42
2017-12-13T02:43:05.081Z,25.85
2017-12-13T02:45:31.941Z,25.45
2017-12-13T02:47:58.809Z,26.92
2017-12-13T02:50:25.903Z,24.15
2017-12-13T02:52:53.251Z,24.50
2017-12-13T02:55:20.413Z,24.15
2017-12-13T02:57:47.558Z,25.33
2017-12-13T03:00:14.436Z,25.50
2017-12-13T03:02:41.328Z,25.07
2017-12-13T03:05:08.181Z,23.70
2017-12-13T03:07:35.020Z,22.00
2017-12-13T03:10:01.921Z,21.00
2017-12-13T03:12:29.027Z,21.60
2017-12-13T03:14:55.871Z,22.67
2017-12-13T03:17:23.028Z,24.95
2017-12-13T03:19:50.176Z,23.42
2017-12-13T03:22:17.328Z,25.85
2017-12-13T03:24:44.179Z,29.30
2017-12-13T03:27:11.015Z,25.75
2017-12-13T03:29:37.880Z,23.85
2017-12-13T03:32:05.103Z,24.60
2017-12-13T03:34:31.950Z,22.67
2017-12-13T03:36:58.762Z,20.83
2017-12-13T03:39:25.945Z,23.60
2017-12-13T03:41:53.093Z,23.70
2017-12-13T03:44:20.254Z,24.60
2017-12-13T03:46:47.136Z,25.00
2017-12-13T03:49:14.009Z,25.70
2017-12-13T03:51:40.870Z,22.17
2017-12-13T03:54:08.024Z,23.50
2017-12-13T03:56:34.851Z,22.60
2017-12-13T03:59:01.918Z,25.00
2017-12-13T04:01:28.830Z,25.83
2017-12-13T04:03:55.906Z,24.33
2017-12-13T04:06:22.786Z,23.33
2017-12-13T04:08:49.899Z,25.55
2017-12-13T04:11:16.731Z,24.60
2017-12-13T04:13:43.588Z,27.00
2017-12-13T04:16:10.786Z,26.80
2017-12-13T04:18:37.632Z,25.70
2017-12-13T04:21:04.521Z,27.77
2017-12-13T04:23:31.392Z,26.20
2017-12-13T04:25:58.245Z,26.80
2017-12-13T04:28:25.092Z,25.07
2017-12-13T04:30:51.932Z,27.90
2017-12-13T04:33:18.772Z,30.00
2017-12-13T04:35:45.592Z,27.15
2017-12-13T04:38:12.454Z,31.65
2017-12-13T04:40:39.580Z,31.92
2017-12-13T04:43:06.428Z,28.87
2017-12-13T04:45:33.570Z,32.63
2017-12-13T04:48:00.730Z,33.75
2017-12-13T04:50:27.547Z,36.45
2017-12-13T04:52:54.721Z,35.95
2017-12-13T04:55:21.581Z,36.50
2017-12-13T04:57:48.712Z,38.30
2017-12-13T05:00:15.555Z,42.72
2017-12-13T05:02:42.406Z,38.42
2017-12-13T05:05:09.554Z,38.70
2017-12-13T05:07:36.481Z,40.50
2017-12-13T05:10:03.325Z,40.88
2017-12-13T05:12:30.224Z,37.42
2017-12-13T05:14:57.327Z,40.17
2017-12-13T05:17:24.154Z,39.50
2017-12-13T05:19:51.328Z,37.47
2017-12-13T05:22:18.183Z,40.43
2017-12-13T05:24:45.037Z,39.73
2017-12-13T05:27:11.869Z,39.40
2017-12-13T05:29:38.780Z,39.47
2017-12-13T05:32:05.673Z,41.40
2017-12-13T05:34:32.540Z,39.47
2017-12-13T05:36:59.382Z,37.93
2017-12-13T05:39:26.579Z,40.67
2017-12-13T05:41:53.732Z,40.80
2017-12-13T05:44:20.617Z,37.30
2017-12-13T05:46:47.472Z,36.58
2017-12-13T05:49:14.316Z,35.85
2017-12-13T05:51:41.224Z,35.13
2017-12-13T05:54:08.124Z,34.85
2017-12-13T05:56:34.959Z,36.55
2017-12-13T05:59:02.039Z,36.22
2017-12-13T06:01:28.880Z,34.97
2017-12-13T06:03:56.042Z,35.40
2017-12-13T06:06:23.188Z,29.90
2017-12-13T06:08:50.334Z,32.33
2017-12-13T06:11:17.164Z,34.38
2017-12-13T06:13:44.041Z,32.53
2017-12-13T06:16:10.905Z,31.17
2017-12-13T06:18:38.014Z,30.12
2017-12-13T06:21:05.168Z,32.25
2017-12-13T06:23:31.995Z,29.53
2017-12-13T06:25:59.187Z,27.87
2017-12-13T06:28:26.312Z,29.08
2017-12-13T06:30:53.180Z,28.55
2017-12-13T06:33:20.017Z,29.30
2017-12-13T06:35:46.964Z,28.77
2017-12-13T06:38:14.097Z,29.27
2017-12-13T06:40:40.944Z,29.75
2017-12-13T06:43:08.019Z,28.27
2017-12-13T06:45:35.136Z,28.00
2017-12-13T06:48:01.959Z,28.87
2017-12-13T06:50:28.854Z,27.75
2017-12-13T06:52:55.681Z,28.30
2017-12-13T06:55:22.560Z,26.95
2017-12-13T06:57:49.436Z,26.90
2017-12-13T07:00:16.282Z,29.20
2017-12-13T07:02:43.448Z,26.70
2017-12-13T07:05:10.304Z,25.83
2017-12-13T07:07:37.439Z,26.85
2017-12-13T07:10:04.600Z,25.70
2017-12-13T07:12:31.451Z,28.58
2017-12-13T07:14:58.284Z,24.95
2017-12-13T07:17:25.433Z,25.20
2017-12-13T07:19:52.298Z,25.92
2017-12-13T07:22:19.163Z,26.12
2017-12-13T07:24:45.992Z,27.05
2017-12-13T07:27:13.212Z,25.35
2017-12-13T07:29:40.081Z,24.92
2017-12-13T07:32:06.924Z,24.33
2017-12-13T07:34:34.153Z,26.02
2017-12-13T07:37:00.994Z,24.90
2017-12-13T07:39:28.143Z,23.30
2017-12-13T07:41:55.069Z,23.52
2017-12-13T07:44:22.236Z,24.80
2017-12-13T07:46:49.080Z,22.48
2017-12-13T07:49:15.994Z,23.20
2017-12-13T07:51:43.180Z,22.42
2017-12-13T07:54:10.328Z,20.90
2017-12-13T07:56:37.208Z,21.65
2017-12-13T07:59:04.329Z,20.42
2017-12-13T08:01:31.205Z,22.65
2017-12-13T08:03:58.088Z,18.92
2017-12-13T08:06:24.929Z,19.33
2017-12-13T08:08:51.804Z,17.50
2017-12-13T08:11:19.054Z,19.48
2017-12-13T08:13:45.924Z,16.98
2017-12-13T08:16:12.792Z,18.42
2017-12-13T08:18:39.672Z,16.48
2017-12-13T08:21:06.839Z,17.73
2017-12-13T08:23:33.980Z,18.17
2017-12-13T08:26:01.129Z,17.45
2017-12-13T08:28:27.959Z,16.92
2017-12-13T08:30:55.035Z,19.52
2017-12-13T08:33:21.888Z,17.67
2017-12-13T08:35:48.756Z,16.90
2017-12-13T08:38:15.601Z,16.77
2017-12-13T08:40:42.809Z,15.40
2017-12-13T08:43:09.643Z,15.50
2017-12-13T08:45:36.509Z,17.27
2017-12-13T08:48:03.744Z,15.50
2017-12-13T08:50:30.897Z,15.25
2017-12-13T08:52:57.771Z,15.52
2017-12-13T08:55:24.640Z,14.63
2017-12-13T08:57:51.840Z,16.58
2017-12-13T09:00:18.708Z,15.40
2017-12-13T09:02:45.644Z,16.17
2017-12-13T09:05:12.504Z,14.05
2017-12-13T09:07:39.369Z,12.18
2017-12-13T09:10:06.891Z,13.40
2017-12-13T09:12:33.765Z,12.80
2017-12-13T09:15:00.589Z,14.35
2017-12-13T09:17:27.468Z,14.23
2017-12-13T09:19:54.653Z,16.30
2017-12-13T09:22:21.695Z,13.18
2017-12-13T09:24:48.561Z,13.37
2017-12-13T09:27:15.417Z,15.18
2017-12-13T09:29:42.279Z,12.10
2017-12-13T09:32:09.131Z,13.85
2017-12-13T09:34:35.977Z,11.40
2017-12-13T09:37:03.094Z,12.63
2017-12-13T09:39:30.221Z,13.60
2017-12-13T09:41:57.115Z,14.70
2017-12-13T09:44:23.985Z,15.05
2017-12-13T09:46:50.864Z,14.52
2017-12-13T09:49:17.696Z,13.35
2017-12-13T09:51:44.754Z,14.60
2017-12-13T09:54:11.883Z,14.10
2017-12-13T09:56:38.744Z,14.87
2017-12-13T09:59:05.879Z,16.37
2017-12-13T10:01:32.793Z,15.48
2017-12-13T10:03:59.680Z,14.75
2017-12-13T10:06:26.503Z,14.73
2017-12-13T10:08:53.331Z,16.30
2017-12-13T10:11:20.511Z,14.50
2017-12-13T10:13:47.657Z,15.02
2017-12-13T10:16:14.807Z,15.48
2017-12-13T10:18:41.960Z,14.87
2017-12-13T10:21:08.824Z,15.10
2017-12-13T10:23:35.950Z,15.10
2017-12-13T10:26:03.104Z,15.45
2017-12-13T10:28:29.965Z,14.20
2017-12-13T10:30:56.795Z,14.13
2017-12-13T10:33:23.936Z,15.50
2017-12-13T10:35:50.795Z,14.38
2017-12-13T10:38:17.672Z,14.25
2017-12-13T10:40:44.771Z,14.30
2017-12-13T10:43:11.934Z,14.90
2017-12-13T10:45:38.784Z,13.70
2017-12-13T10:48:05.610Z,14.50
2017-12-13T10:50:32.473Z,14.25
2017-12-13T10:52:59.546Z,16.48
2017-12-13T10:55:26.650Z,15.18
2017-12-13T10:57:53.509Z,15.43
2017-12-13T11:00:20.652Z,14.73
2017-12-13T11:02:47.802Z,15.15
2017-12-13T11:05:14.710Z,17.25
2017-12-13T11:07:41.891Z,16.90
2017-12-13T11:10:09.048Z,15.18
2017-12-13T11:12:35.858Z,14.50
2017-12-13T11:15:02.699Z,14.70
2017-12-13T11:17:29.568Z,13.30
2017-12-13T11:19:56.723Z,14.80
2017-12-13T11:22:23.572Z,14.95
2017-12-13T11:24:50.400Z,14.20
2017-12-13T11:27:17.220Z,13.00
2017-12-13T11:29:44.362Z,14.35
2017-12-13T11:32:11.448Z,14.18
2017-12-13T11:34:38.279Z,15.27
2017-12-13T11:37:11.151Z,13.32
2017-12-13T11:39:38.060Z,16.20
2017-12-13T11:42:04.895Z,14.32
2017-12-13T11:44:31.837Z,13.27
2017-12-13T11:46:58.700Z,12.73
2017-12-13T11:49:25.569Z,12.90
2017-12-13T11:51:52.751Z,12.52
2017-12-13T11:54:19.606Z,13.53
2017-12-13T11:56:46.738Z,13.40
2017-12-13T11:59:13.605Z,13.23
2017-12-13T12:01:40.423Z,12.90
2017-12-13T12:04:07.585Z,13.38
2017-12-13T12:06:34.739Z,13.23
2017-12-13T12:09:01.906Z,12.27
2017-12-13T12:11:29.028Z,13.05
2017-12-13T12:13:55.906Z,12.98
2017-12-13T12:16:22.784Z,13.75
2017-12-13T12:18:49.603Z,12.70
2017-12-13T12:21:16.521Z,12.90
2017-12-13T12:23:43.762Z,12.77
2017-12-13T12:26:10.605Z,13.00
2017-12-13T12:28:37.499Z,12.55
2017-12-13T12:31:04.370Z,14.00
2017-12-13T12:33:31.237Z,11.70
2017-12-13T12:35:58.342Z,12.70
2017-12-13T12:38:25.173Z,12.37
2017-12-13T12:40:52.281Z,12.98
2017-12-13T12:43:19.423Z,13.80
2017-12-13T12:45:46.245Z,14.90
2017-12-13T12:48:13.062Z,14.30
2017-12-13T12:50:39.895Z,14.23
2017-12-13T12:53:06.999Z,12.05
2017-12-13T12:55:34.052Z,13.40
2017-12-13T12:58:01.209Z,13.90
2017-12-13T13:00:28.053Z,13.88
2017-12-13T13:02:54.924Z,12.67
2017-12-13T13:05:22.044Z,12.53
2017-12-13T13:07:48.879Z,14.90
2017-12-13T13:10:15.740Z,13.45
2017-12-13T13:12:42.607Z,12.07
2017-12-13T13:15:09.465Z,13.60
2017-12-13T13:17:36.345Z,15.40
2017-12-13T13:20:03.518Z,12.20
2017-12-13T13:22:30.418Z,12.15
2017-12-13T13:24:57.311Z,11.50
2017-12-13T13:27:24.449Z,13.18
2017-12-13T13:29:51.344Z,13.82
2017-12-13T13:32:18.188Z,13.13
2017-12-13T13:34:45.046Z,13.40
2017-12-13T13:37:12.410Z,11.82
2017-12-13T13:39:39.337Z,11.90
2017-12-13T13:42:06.213Z,11.80
2017-12-13T13:44:34.187Z,13.27
2017-12-13T13:47:00.996Z,12.10
2017-12-13T13:49:27.832Z,13.00
2017-12-13T13:51:54.689Z,12.40
2017-12-13T13:54:21.569Z,11.23
2017-12-13T13:56:48.411Z,14.52
2017-12-13T13:59:15.240Z,13.85
2017-12-13T14:01:42.057Z,13.07
2017-12-13T14:04:09.245Z,13.02
2017-12-13T14:06:36.092Z,13.85
2017-12-13T14:09:02.969Z,12.20
2017-12-13T14:11:29.903Z,13.70
2017-12-13T14:13:57.032Z,12.40
2017-12-13T14:16:24.175Z,14.13
2017-12-13T14:18:51.052Z,14.33
2017-12-13T14:21:18.168Z,12.57
2017-12-13T14:23:45.322Z,14.25
2017-12-13T14:26:12.469Z,14.70
2017-12-13T14:28:39.623Z,14.02
2017-12-13T14:31:06.764Z,13.80
2017-12-13T14:33:33.637Z,15.20
2017-12-13T14:36:00.463Z,13.75
2017-12-13T14:38:27.270Z,15.15
2017-12-13T14:40:54.455Z,15.55
2017-12-13T14:43:21.602Z,15.02
2017-12-13T14:45:48.418Z,13.95
2017-12-13T14:48:15.591Z,15.43
2017-12-13T14:50:42.409Z,15.48
2017-12-13T14:53:09.239Z,14.80
2017-12-13T14:55:36.434Z,16.20
2017-12-13T14:58:03.585Z,19.25
2017-12-13T15:00:30.740Z,17.15
2017-12-13T15:02:57.625Z,16.10
2017-12-13T15:05:24.498Z,15.20
2017-12-13T15:07:51.388Z,16.52
2017-12-13T15:10:18.247Z,24.15
2017-12-13T15:12:45.108Z,17.10
2017-12-13T15:15:12.195Z,15.63
2017-12-13T15:17:39.068Z,15.95
2017-12-13T15:20:05.888Z,16.30
2017-12-13T15:22:32.740Z,17.58
2017-12-13T15:24:59.615Z,16.02
2017-12-13T15:27:26.439Z,17.30
2017-12-13T15:29:53.564Z,20.23
2017-12-13T15:32:20.716Z,19.23
2017-12-13T15:34:47.593Z,16.90
2017-12-13T15:37:14.713Z,16.77
2017-12-13T15:39:41.865Z,19.27
2017-12-13T15:42:08.723Z,19.37
2017-12-13T15:44:35.851Z,16.95
2017-12-13T15:47:03.003Z,16.17
2017-12-13T15:49:29.823Z,19.00
2017-12-13T15:51:56.677Z,15.38
2017-12-13T15:54:23.558Z,18.10
2017-12-13T15:56:50.684Z,18.30
2017-12-13T15:59:17.552Z,17.50
2017-12-13T16:01:44.489Z,15.20
2017-12-13T16:04:11.626Z,17.67
2017-12-13T16:06:38.488Z,17.25
2017-12-13T16:09:05.625Z,17.50
2017-12-13T16:11:32.464Z,23.48
2017-12-13T16:13:59.308Z,17.48
2017-12-13T16:16:26.140Z,17.85
2017-12-13T16:18:52.993Z,17.00
2017-12-13T16:21:19.844Z,16.42
2017-12-13T16:23:48.461Z,17.55
2017-12-13T16:26:15.844Z,16.47
2017-12-13T16:28:43.815Z,17.67
2017-12-13T16:31:11.000Z,18.45
2017-12-13T16:33:37.857Z,17.20
2017-12-13T16:36:04.709Z,17.35
2017-12-13T16:38:31.834Z,18.50
2017-12-13T16:40:58.699Z,17.80
2017-12-13T16:43:25.536Z,17.75
2017-12-13T16:45:52.535Z,16.62
2017-12-13T16:48:19.344Z,16.85
2017-12-13T16:50:46.226Z,15.40
2017-12-13T16:53:13.489Z,16.73
2017-12-13T16:55:40.373Z,15.32
2017-12-13T16:58:07.508Z,16.27
2017-12-13T17:00:34.343Z,16.60
2017-12-13T17:03:01.494Z,18.12
2017-12-13T17:05:28.375Z,17.08
2017-12-13T17:07:55.265Z,17.23
2017-12-13T17:10:22.434Z,17.27
2017-12-13T17:12:49.291Z,16.17
2017-12-13T17:15:16.185Z,16.03
2017-12-13T17:17:43.047Z,14.80
2017-12-13T17:20:09.940Z,14.80
2017-12-13T17:22:36.832Z,17.00
2017-12-13T17:25:04.001Z,14.23
2017-12-13T17:27:30.827Z,14.10
2017-12-13T17:29:57.709Z,14.48
2017-12-13T17:32:24.910Z,15.27
2017-12-13T17:34:51.996Z,15.10
2017-12-13T17:37:19.593Z,13.50
2017-12-13T17:39:46.685Z,20.25
2017-12-13T17:42:13.919Z,14.40
2017-12-13T17:44:40.842Z,14.63
2017-12-13T17:47:07.944Z,15.05
2017-12-13T17:49:35.081Z,14.50
2017-12-13T17:52:02.142Z,14.50
2017-12-13T17:54:29.041Z,13.52
2017-12-13T17:56:56.721Z,14.20
2017-12-13T17:59:24.320Z,14.45
2017-12-13T18:01:51.212Z,14.00
2017-12-13T18:04:18.043Z,13.43
2017-12-13T18:06:45.247Z,13.90
2017-12-13T18:09:12.102Z,13.18
2017-12-13T18:11:38.961Z,14.23
2017-12-13T18:14:05.856Z,14.40
2017-12-13T18:16:32.688Z,13.93
2017-12-13T18:18:59.524Z,13.20
2017-12-13T18:21:26.401Z,13.00
2017-12-13T18:23:53.317Z,13.68
2017-12-13T18:26:20.513Z,12.80
2017-12-13T18:28:47.441Z,12.23
2017-12-13T18:31:14.312Z,12.30
2017-12-13T18:33:41.173Z,12.95
2017-12-13T18:36:08.294Z,12.10
2017-12-13T18:38:35.152Z,11.90
2017-12-13T18:41:01.983Z,12.20
2017-12-13T18:43:28.866Z,12.20
2017-12-13T18:45:55.715Z,12.40
2017-12-13T18:48:22.600Z,12.40
2017-12-13T18:50:49.476Z,16.83
2017-12-13T18:53:16.366Z,19.60
2017-12-13T18:55:43.440Z,13.20
2017-12-13T18:58:10.320Z,12.77
2017-12-13T19:00:37.497Z,12.80
2017-12-13T19:03:04.692Z,12.95
2017-12-13T19:05:31.839Z,12.60
2017-12-13T19:07:58.689Z,12.57
2017-12-13T19:10:25.523Z,11.60
2017-12-13T19:12:52.407Z,11.70
2017-12-13T19:15:19.235Z,12.88
2017-12-13T19:17:46.087Z,12.40
2017-12-13T19:20:12.990Z,12.02
2017-12-13T19:22:40.362Z,12.40
2017-12-13T19:25:07.521Z,11.02
2017-12-13T19:27:34.771Z,12.23
2017-12-13T19:30:02.030Z,11.00
2017-12-13T19:32:28.932Z,11.75
2017-12-13T19:34:55.825Z,11.23
2017-12-13T19:37:22.961Z,11.00
2017-12-13T19:39:50.086Z,10.80
2017-12-13T19:42:17.011Z,11.60
2017-12-13T19:44:43.885Z,12.30
2017-12-13T19:47:10.763Z,11.00
2017-12-13T19:49:37.710Z,10.45
2017-12-13T19:52:04.946Z,11.57
2017-12-13T19:54:31.840Z,11.55
2017-12-13T19:56:58.742Z,11.10
2017-12-13T19:59:25.610Z,10.43
2017-12-13T20:01:52.490Z,11.27
2017-12-13T20:04:19.676Z,11.00
2017-12-13T20:06:46.990Z,11.30
2017-12-13T20:09:13.882Z,10.75
2017-12-13T20:11:41.122Z,10.73
2017-12-13T20:14:07.998Z,11.30
2017-12-13T20:16:34.902Z,11.75
2017-12-13T20:19:02.161Z,11.00
2017-12-13T20:21:29.028Z,11.35
2017-12-13T20:23:56.264Z,11.80
2017-12-13T20:26:23.179Z,12.82
2017-12-13T20:28:50.349Z,11.60
2017-12-13T20:31:17.500Z,12.13
2017-12-13T20:33:44.652Z,12.27
2017-12-13T20:36:11.808Z,12.50
2017-12-13T20:38:38.708Z,12.30
2017-12-13T20:41:05.585Z,12.40
2017-12-13T20:43:32.494Z,12.68
2017-12-13T20:45:59.386Z,13.45
2017-12-13T20:48:26.633Z,12.52
2017-12-13T20:50:53.512Z,14.00
2017-12-13T20:53:20.416Z,14.90
2017-12-13T20:55:47.578Z,14.32
2017-12-13T20:58:14.478Z,15.00
2017-12-13T21:00:41.771Z,15.23
2017-12-13T21:03:08.649Z,14.65
2017-12-13T21:05:35.525Z,15.20
2017-12-13T21:08:02.409Z,15.18
2017-12-13T21:10:29.285Z,16.10
2017-12-13T21:12:56.151Z,15.48
2017-12-13T21:15:23.009Z,16.98
2017-12-13T21:17:50.190Z,16.87
2017-12-13T21:20:17.077Z,17.00
2017-12-13T21:22:43.971Z,16.35
2017-12-13T21:25:10.887Z,18.00
2017-12-13T21:27:37.745Z,15.68
2017-12-13T21:30:04.662Z,15.45
2017-12-13T21:32:31.590Z,16.27
2017-12-13T21:34:58.458Z,16.05
2017-12-13T21:37:25.304Z,15.25
2017-12-13T21:39:52.198Z,16.75
2017-12-13T21:42:19.394Z,19.10
2017-12-13T21:44:46.286Z,16.15
2017-12-13T21:47:13.178Z,16.00
2017-12-13T21:49:40.030Z,18.45
2017-12-13T21:52:06.973Z,17.23
2017-12-13T21:54:34.165Z,18.12
2017-12-13T21:57:01.269Z,18.90
2017-12-13T21:59:28.122Z,18.95
2017-12-13T22:01:55.030Z,20.27
2017-12-13T22:04:22.151Z,19.90
2017-12-13T22:06:49.304Z,18.23
2017-12-13T22:09:16.178Z,16.73
2017-12-13T22:11:43.119Z,18.00
2017-12-13T22:14:10.010Z,17.80
2017-12-13T22:16:36.901Z,18.35
2017-12-13T22:19:04.031Z,16.20
2017-12-13T22:21:31.255Z,17.58
2017-12-13T22:23:58.166Z,15.95
2017-12-13T22:26:25.293Z,16.15
2017-12-13T22:28:52.175Z,17.05
2017-12-13T22:31:19.369Z,15.88
2017-12-13T22:33:46.274Z,16.45
2017-12-13T22:36:13.434Z,17.65
2017-12-13T22:38:40.399Z,19.40
2017-12-13T22:41:07.566Z,16.90
2017-12-13T22:43:34.447Z,17.30
2017-12-13T22:46:01.579Z,17.10
2017-12-13T22:48:28.456Z,16.77
2017-12-13T22:50:55.337Z,17.48
2017-12-13T22:53:22.221Z,17.35
2017-12-13T22:55:49.091Z,16.17
2017-12-13T22:58:16.280Z,19.10
2017-12-13T23:00:49.051Z,17.70
2017-12-13T23:03:15.956Z,16.42
2017-12-13T23:05:42.879Z,17.65
2017-12-13T23:08:10.110Z,15.80
2017-12-13T23:10:37.023Z,17.60
2017-12-13T23:13:03.902Z,17.62
2017-12-13T23:15:30.814Z,17.15
2017-12-13T23:17:57.993Z,18.20
2017-12-13T23:20:24.853Z,18.37
2017-12-13T23:22:51.762Z,17.85
2017-12-13T23:25:18.648Z,15.98
2017-12-13T23:27:45.569Z,16.45
2017-12-13T23:30:12.462Z,15.82
2017-12-13T23:32:39.324Z,16.02
2017-12-13T23:35:06.512Z,16.50
2017-12-13T23:37:33.388Z,16.37
2017-12-13T23:40:00.291Z,16.73
2017-12-13T23:42:27.455Z,17.08
2017-12-13T23:44:54.706Z,17.15
2017-12-13T23:47:21.849Z,14.95
2017-12-13T23:49:48.734Z,15.95
2017-12-13T23:52:15.665Z,13.90
2017-12-13T23:54:42.521Z,15.50
2017-12-13T23:57:09.743Z,16.25
2017-12-13T23:59:36.885Z,16.90
